Time;durP1;ratioP1;P1;durP2;ratioP2;P2;SDS_P1;SDS_P2;PMS_P1;PMS_P2;Temp;Humidity;BMP_temperature;BMP_pressure;BME280_temperature;BME280_humidity;BME280_pressure;Samples;Min_cycle;Max_cycle;Signal;HPM_P1;HPM_P2
2022/09/05 00:01:40;;;;;;;4.45;3.42;;;;;;;16.50;92.93;101815.94;5029244;28;20397;-65
2022/09/05 00:04:42;;;;;;;4.85;3.38;;;;;;;16.45;92.49;101814.97;5028148;28;20025;-65
2022/09/05 00:07:26;;;;;;;4.07;3.35;;;;;;;16.41;93.00;101813.13;5029085;28;20032;-64
2022/09/05 00:10:07;;;;;;;3.55;3.20;;;;;;;16.38;92.68;101806.09;5028409;28;20485;-65
2022/09/05 00:12:34;;;;;;;;;;;;;;;16.40;92.99;101806.13;5028810;28;20104;-64
2022/09/05 00:15:18;;;;;;;7.38;4.20;;;;;;;16.35;93.39;101805.16;5029278;28;20349;-64
2022/09/05 00:17:46;;;;;;;4.53;3.75;;;;;;;16.31;94.17;101805.09;5029082;28;20057;-63
2022/09/05 00:20:20;;;;;;;5.07;3.85;;;;;;;16.25;94.50;101799.69;5028692;28;20035;-65
2022/09/05 00:23:02;;;;;;;7.93;4.00;;;;;;;16.22;94.77;101801.34;5028815;28;20076;-64
2022/09/05 00:25:39;;;;;;;5.47;4.13;;;;;;;16.19;94.60;101802.19;5028244;28;20329;-64
2022/09/05 00:28:25;;;;;;;9.15;4.28;;;;;;;16.14;95.36;101803.78;5029278;28;20385;-64
2022/09/05 00:31:18;;;;;;;5.20;3.58;;;;;;;16.13;95.23;101809.84;5028503;28;20071;-65
2022/09/05 00:34:15;;;;;;;5.55;3.97;;;;;;;16.10;95.22;101809.78;5028703;28;20031;-65
2022/09/05 00:36:46;;;;;;;6.85;4.32;;;;;;;16.05;95.21;101813.16;5027826;28;20181;-64
2022/09/05 00:39:20;;;;;;;4.30;3.90;;;;;;;16.03;95.78;101809.63;5028113;28;20467;-64
2022/09/05 00:41:48;;;;;;;4.90;3.40;;;;;;;16.01;95.68;101803.47;5028352;28;20517;-64
2022/09/05 00:44:15;;;;;;;5.13;4.07;;;;;;;15.98;96.19;101800.75;5027719;28;20508;-64
2022/09/05 00:47:05;;;;;;;5.18;4.40;;;;;;;15.96;96.44;101802.44;5028083;28;20032;-64
2022/09/05 00:49:46;;;;;;;6.57;4.63;;;;;;;15.95;96.20;101800.69;5028087;28;20033;-64
2022/09/05 00:52:19;;;;;;;5.85;4.78;;;;;;;15.93;96.17;101797.16;5027751;28;20079;-65
2022/09/05 00:55:09;;;;;;;6.88;5.03;;;;;;;15.91;96.35;101793.59;5028255;28;20485;-65
2022/09/05 00:57:58;;;;;;;5.85;5.30;;;;;;;15.90;96.20;101791.84;5027966;28;20025;-65
2022/09/05 01:00:52;;;;;;;7.43;5.60;;;;;;;15.82;97.02;101789.91;5027976;28;20033;-65
2022/09/05 01:03:53;;;;;;;5.65;4.88;;;;;;;15.83;96.74;101796.03;5028599;28;20600;-65
2022/09/05 01:06:36;;;;;;;10.65;5.03;;;;;;;15.79;97.02;101795.09;5027998;28;20181;-65
2022/09/05 01:09:13;;;;;;;6.72;5.57;;;;;;;15.76;97.10;101794.97;5027927;28;20101;-65
2022/09/05 01:11:41;;;;;;;6.75;5.30;;;;;;;15.71;98.00;101791.38;5028496;28;20485;-65
2022/09/05 01:14:30;;;;;;;5.60;5.00;;;;;;;15.68;98.10;101801.75;5027505;28;20032;-65
2022/09/05 01:17:19;;;;;;;6.78;6.03;;;;;;;15.63;98.23;101788.56;5028023;28;20024;-65
2022/09/05 01:20:16;;;;;;;5.63;4.60;;;;;;;15.60;98.17;101788.47;5026530;28;20034;-65
2022/09/05 01:23:19;;;;;;;7.80;5.05;;;;;;;15.59;98.86;101797.16;5027491;28;20025;-65
2022/09/05 01:26:03;;;;;;;5.88;4.88;;;;;;;15.55;98.76;101796.19;5027384;28;20075;-65
2022/09/05 01:28:49;;;;;;;6.20;5.35;;;;;;;15.51;99.28;101796.94;5026953;28;20452;-64
2022/09/05 01:31:39;;;;;;;7.68;5.50;;;;;;;15.46;99.91;101790.72;5027489;28;20087;-64
2022/09/05 01:34:11;;;;;;;6.68;5.05;;;;;;;15.46;99.61;101793.34;5027439;28;20033;-64
2022/09/05 01:36:49;;;;;;;5.75;5.03;;;;;;;15.42;99.71;101789.75;5027113;28;20021;-65
2022/09/05 01:39:35;;;;;;;5.60;4.75;;;;;;;15.41;99.83;101798.44;5027611;28;20041;-64
2022/09/05 01:42:18;;;;;;;9.68;5.32;;;;;;;15.37;100.00;101786.13;5027292;28;20523;-64
2022/09/05 01:44:56;;;;;;;8.15;4.47;;;;;;;15.33;100.00;101790.38;5026831;28;20148;-65
2022/09/05 01:47:34;;;;;;;6.63;5.18;;;;;;;15.29;100.00;101788.53;5027240;28;20440;-64
2022/09/05 01:50:12;;;;;;;6.35;5.50;;;;;;;15.25;100.00;101784.94;5027292;28;20052;-64
2022/09/05 01:52:46;;;;;;;7.22;5.35;;;;;;;15.23;100.00;101788.38;5026855;28;20029;-64
2022/09/05 01:55:55;;;;;;;6.55;5.20;;;;;;;15.21;100.00;101790.06;5027950;28;20055;-64
2022/09/05 01:58:30;;;;;;;8.02;5.80;;;;;;;15.20;100.00;101789.16;5027276;28;20052;-64
2022/09/05 02:01:15;;;;;;;6.28;5.65;;;;;;;15.20;100.00;101789.16;5027156;28;20025;-65
2022/09/05 02:03:58;;;;;;;5.63;5.13;;;;;;;15.19;100.00;101796.94;5027075;28;20488;-64
2022/09/05 02:06:37;;;;;;;6.93;6.20;;;;;;;15.18;100.00;101797.81;5026906;28;20496;-64
2022/09/05 02:09:21;;;;;;;7.72;5.72;;;;;;;15.13;100.00;101790.72;5027406;28;20489;-64
2022/09/05 02:11:58;;;;;;;6.47;5.85;;;;;;;15.12;100.00;101781.13;5027275;28;20028;-64
2022/09/05 02:14:44;;;;;;;7.10;5.93;;;;;;;15.12;100.00;101786.34;5027414;28;20093;-64
2022/09/05 02:17:24;;;;;;;6.85;6.25;;;;;;;15.11;100.00;101788.94;5026577;28;20029;-64
2022/09/05 02:20:00;;;;;;;7.00;6.15;;;;;;;15.12;100.00;101788.97;5026991;28;20021;-63
2022/09/05 02:22:40;;;;;;;8.38;6.75;;;;;;;15.16;100.00;101799.50;5026890;28;20056;-64
2022/09/05 02:25:13;;;;;;;9.95;6.78;;;;;;;15.16;100.00;101796.88;5026982;28;20030;-64
2022/09/05 02:27:46;;;;;;;8.35;7.45;;;;;;;15.17;100.00;101798.63;5026115;28;20037;-65
2022/09/05 02:30:18;;;;;;;7.32;6.65;;;;;;;15.16;100.00;101803.00;5027116;28;20029;-64
2022/09/05 02:32:53;;;;;;;8.15;6.75;;;;;;;15.15;100.00;101805.56;5030372;28;20037;-65
2022/09/05 02:35:29;;;;;;;7.13;6.47;;;;;;;15.12;100.00;101804.63;5031324;28;20472;-64
2022/09/05 02:38:06;;;;;;;7.45;6.68;;;;;;;15.11;100.00;101800.22;5031197;28;20029;-64
2022/09/05 02:40:34;;;;;;;7.57;6.00;;;;;;;15.11;100.00;101805.44;5030981;28;20419;-64
2022/09/05 02:43:21;;;;;;;8.13;6.97;;;;;;;15.09;100.00;101807.13;5031076;28;20033;-64
2022/09/05 02:46:13;;;;;;;7.15;6.55;;;;;;;15.08;100.00;101801.88;5017635;28;20531;-64
2022/09/05 02:48:59;;;;;;;8.45;7.10;;;;;;;15.05;100.00;101802.69;5030455;28;20089;-64
2022/09/05 02:51:38;;;;;;;7.45;6.75;;;;;;;14.99;100.00;101799.88;5030990;28;20036;-64
2022/09/05 02:54:11;;;;;;;8.15;7.30;;;;;;;14.95;100.00;101811.09;5030961;28;20456;-64
2022/09/05 02:56:52;;;;;;;8.15;7.38;;;;;;;14.90;100.00;101805.72;5030378;28;20053;-64
2022/09/05 02:59:38;;;;;;;8.43;7.18;;;;;;;14.89;100.00;101804.81;5029537;28;20095;-64
2022/09/05 03:02:22;;;;;;;10.10;7.70;;;;;;;14.85;100.00;101808.19;5030646;28;20553;-65
2022/09/05 03:05:11;;;;;;;8.40;7.50;;;;;;;14.84;100.00;101797.72;5030446;28;20038;-64
2022/09/05 03:07:59;;;;;;;9.10;7.32;;;;;;;14.80;100.00;101801.94;5030866;28;20474;-64
2022/09/05 03:10:48;;;;;;;8.40;7.40;;;;;;;14.80;100.00;101799.31;5030455;28;20315;-64
2022/09/05 03:13:47;;;;;;;8.43;7.55;;;;;;;14.79;100.00;101801.91;5030380;28;20036;-64
2022/09/05 03:16:26;;;;;;;8.82;7.18;;;;;;;14.79;100.00;101802.75;5030352;28;20416;-64
2022/09/05 03:19:32;;;;;;;7.80;6.53;;;;;;;14.79;100.00;101801.91;5030627;28;20039;-64
2022/09/05 03:22:19;;;;;;;7.55;6.95;;;;;;;14.80;100.00;101801.94;5030178;28;20096;-64
2022/09/05 03:25:03;;;;;;;8.27;7.18;;;;;;;14.79;100.00;101791.47;5030803;28;20026;-64
2022/09/05 03:28:14;;;;;;;7.68;6.70;;;;;;;14.77;100.00;101804.44;5029711;28;20025;-64
2022/09/05 03:31:09;;;;;;;8.93;6.95;;;;;;;14.76;100.00;101806.19;5029508;28;20082;-64
2022/09/05 03:34:11;;;;;;;8.00;7.30;;;;;;;14.76;100.00;101802.66;5029906;28;20018;-64
2022/09/05 03:36:57;;;;;;;7.55;6.85;;;;;;;14.74;100.00;101799.13;5030256;28;20049;-64
2022/09/05 03:39:37;;;;;;;8.00;7.28;;;;;;;14.75;100.00;101806.13;5029498;28;20100;-65
2022/09/05 03:42:43;;;;;;;9.05;8.25;;;;;;;14.74;100.00;101804.34;5040921;28;20127;-64
2022/09/05 03:45:31;;;;;;;8.25;7.45;;;;;;;14.72;100.00;101803.41;5028036;28;20037;-64
2022/09/05 03:48:11;;;;;;;8.85;7.93;;;;;;;14.73;100.00;101803.44;5029607;28;20017;-64
2022/09/05 03:50:54;;;;;;;8.63;7.28;;;;;;;14.72;100.00;101800.78;5028574;28;20397;-64
2022/09/05 03:53:41;;;;;;;9.30;8.38;;;;;;;14.72;100.00;101808.63;5013759;28;20049;-64
2022/09/05 03:56:33;;;;;;;8.77;7.82;;;;;;;14.70;100.00;101797.25;5029422;28;20042;-65
2022/09/05 03:59:27;;;;;;;10.27;9.13;;;;;;;14.65;100.00;101795.41;5030182;28;20446;-65
2022/09/05 04:02:03;;;;;;;9.63;8.77;;;;;;;14.62;100.00;101795.31;5034012;28;20068;-64
2022/09/05 04:04:38;;;;;;;9.23;8.40;;;;;;;14.62;100.00;101791.81;5029983;28;20080;-64
2022/09/05 04:07:09;;;;;;;9.75;8.95;;;;;;;14.62;100.00;101799.66;5029748;28;20428;-64
2022/09/05 04:09:44;;;;;;;10.43;9.02;;;;;;;14.59;100.00;101795.22;5029551;28;20021;-64
2022/09/05 04:12:27;;;;;;;9.38;8.68;;;;;;;14.56;100.00;101800.34;5029408;28;20112;-64
2022/09/05 04:14:58;;;;;;;10.23;8.90;;;;;;;14.56;100.00;101809.88;5028736;28;20063;-64
2022/09/05 04:17:34;;;;;;;;;;;;;;;14.53;100.00;101810.69;5029859;28;20333;-64
2022/09/05 04:20:19;;;;;;;9.93;8.75;;;;;;;14.53;100.00;101805.47;5028940;28;20000;-64
2022/09/05 04:23:09;;;;;;;9.35;8.23;;;;;;;14.50;100.00;101811.47;5029106;28;20279;-64
2022/09/05 04:25:53;;;;;;;9.95;8.07;;;;;;;14.42;100.00;101802.53;5036723;28;20029;-64
2022/09/05 04:28:36;;;;;;;9.52;8.35;;;;;;;14.35;100.00;101806.66;5027393;28;20068;-64
2022/09/05 04:31:15;;;;;;;10.02;9.13;;;;;;;14.32;100.00;101811.75;5028626;28;20080;-64
2022/09/05 04:34:05;;;;;;;11.75;9.15;;;;;;;14.31;100.00;101810.00;5028697;28;20024;-64
2022/09/05 04:36:33;;;;;;;10.32;9.27;;;;;;;14.29;100.00;101809.06;5028460;28;20108;-64
2022/09/05 04:39:17;;;;;;;10.07;9.07;;;;;;;14.26;100.00;101812.47;5028016;28;20768;-64
2022/09/05 04:41:52;;;;;;;11.23;9.45;;;;;;;14.23;100.00;101809.75;5027825;28;20140;-64
2022/09/05 04:44:25;;;;;;;9.95;9.05;;;;;;;14.19;100.00;101809.59;5028288;28;20033;-63
2022/09/05 04:46:55;;;;;;;11.45;9.95;;;;;;;14.11;100.00;101817.16;5027914;28;20025;-63
2022/09/05 04:49:22;;;;;;;10.38;8.98;;;;;;;14.08;100.00;101817.97;5027027;28;20070;-64
2022/09/05 04:52:35;;;;;;;10.18;9.18;;;;;;;14.03;100.00;101815.19;5026630;28;20033;-65
2022/09/05 04:55:14;;;;;;;11.80;9.57;;;;;;;14.02;100.00;101808.22;4964265;28;20853;-64
2022/09/05 04:58:06;;;;;;;11.27;10.18;;;;;;;14.00;100.00;101817.69;4964162;28;20062;-64
2022/09/05 05:00:54;;;;;;;11.45;10.25;;;;;;;14.02;100.00;101820.34;5014048;28;20485;-64
2022/09/05 05:03:28;;;;;;;11.50;10.25;;;;;;;14.01;100.00;101819.47;5031097;28;20428;-64
2022/09/05 05:06:09;;;;;;;10.57;9.68;;;;;;;14.02;100.00;101822.97;5026701;28;20021;-64
2022/09/05 05:08:47;;;;;;;11.48;10.25;;;;;;;14.01;100.00;101834.22;5025643;28;20208;-64
2022/09/05 05:11:37;;;;;;;10.20;9.25;;;;;;;14.03;100.00;101840.38;5030241;28;20033;-64
2022/09/05 05:14:12;;;;;;;9.77;8.82;;;;;;;14.08;100.00;101831.00;5037848;28;20465;-64
2022/09/05 05:16:41;;;;;;;11.18;8.43;;;;;;;14.12;100.00;101838.06;5033026;28;20021;-63
2022/09/05 05:19:29;;;;;;;9.30;8.40;;;;;;;14.12;100.00;101835.47;5032909;28;20384;-64
2022/09/05 05:21:57;;;;;;;10.95;9.57;;;;;;;14.15;100.00;101826.88;5027702;28;20017;-64
2022/09/05 05:24:30;;;;;;;10.75;9.43;;;;;;;14.16;100.00;101831.22;5027330;28;20018;-63
2022/09/05 05:27:00;;;;;;;9.70;8.80;;;;;;;14.19;100.00;101830.47;5027364;28;20098;-64
2022/09/05 05:29:51;;;;;;;10.60;9.57;;;;;;;14.20;100.00;101832.22;5027201;28;20281;-64
2022/09/05 05:32:22;;;;;;;11.45;10.40;;;;;;;14.23;100.00;101837.56;5024477;28;20786;-64
2022/09/05 05:34:54;;;;;;;10.88;9.98;;;;;;;14.24;100.00;101844.53;5026714;28;20017;-64
2022/09/05 05:37:30;;;;;;;11.88;10.77;;;;;;;14.23;100.00;101838.41;5027166;28;20396;-64
2022/09/05 05:40:04;;;;;;;13.05;10.52;;;;;;;14.25;100.00;101836.75;5027130;28;20032;-64
2022/09/05 05:42:30;;;;;;;11.70;10.18;;;;;;;14.29;100.00;101837.75;5014419;28;20592;-64
2022/09/05 05:44:58;;;;;;;11.90;10.82;;;;;;;14.34;100.00;101836.16;5035950;28;20021;-64
2022/09/05 05:47:33;;;;;;;10.88;10.00;;;;;;;14.40;100.00;101836.38;5027872;28;20488;-63
2022/09/05 05:50:18;;;;;;;11.38;10.35;;;;;;;14.48;100.00;101838.34;5018930;28;20025;-63
2022/09/05 05:53:21;;;;;;;11.30;10.10;;;;;;;14.58;100.00;101827.34;5025658;28;20041;-62
2022/09/05 05:56:29;;;;;;;11.95;10.80;;;;;;;14.68;100.00;101835.47;5025863;28;20063;-63
2022/09/05 05:59:32;;;;;;;11.18;10.07;;;;;;;14.78;100.00;101837.53;5026280;28;20025;-62
2022/09/05 06:01:57;;;;;;;10.55;9.55;;;;;;;14.87;100.00;101842.16;5019292;28;20028;-62
2022/09/05 06:04:42;;;;;;;13.05;11.52;;;;;;;14.99;100.00;101847.75;5026216;28;20026;-63
2022/09/05 06:07:45;;;;;;;12.98;11.23;;;;;;;15.12;100.00;101843.78;5019185;28;20413;-63
2022/09/05 06:10:44;;;;;;;12.40;11.30;;;;;;;15.28;100.00;101849.44;5036132;28;20106;-63
2022/09/05 06:13:44;;;;;;;12.13;10.93;;;;;;;15.45;100.00;101851.66;5025619;28;20024;-62
2022/09/05 06:16:41;;;;;;;12.38;11.13;;;;;;;15.61;100.00;101848.59;5022118;28;20036;-62
2022/09/05 06:19:24;;;;;;;11.45;9.88;;;;;;;15.77;100.00;101849.03;5022763;28;20046;-62
2022/09/05 06:22:24;;;;;;;11.02;9.98;;;;;;;15.93;100.00;101854.66;5025447;28;20037;-62
2022/09/05 06:25:03;;;;;;;10.90;9.93;;;;;;;16.08;100.00;101860.28;5024404;28;20316;-62
2022/09/05 06:27:36;;;;;;;10.45;8.75;;;;;;;16.22;99.67;101858.88;5025067;28;20030;-62
2022/09/05 06:30:07;;;;;;;9.35;8.45;;;;;;;16.40;97.75;101863.66;5023256;28;20376;-64
2022/09/05 06:32:51;;;;;;;;;;;;;;;16.59;96.73;101861.47;5026470;28;20036;-64
2022/09/05 06:35:30;;;;;;;10.90;9.80;;;;;;;16.77;95.72;101854.06;5025170;28;20004;-64
2022/09/05 06:38:14;;;;;;;9.35;8.45;;;;;;;16.96;95.51;101859.72;5025569;28;20025;-64
2022/09/05 06:41:07;;;;;;;8.70;7.88;;;;;;;17.16;94.68;101851.44;5027666;28;20492;-64
2022/09/05 06:43:35;;;;;;;8.13;7.40;;;;;;;17.40;93.97;101858.00;5029729;28;20025;-64
2022/09/05 06:46:34;;;;;;;9.60;7.85;;;;;;;17.66;92.39;101855.00;5025798;28;20127;-64
2022/09/05 06:49:27;;;;;;;8.50;7.53;;;;;;;17.95;90.75;101865.09;5019556;28;20068;-64
2022/09/05 06:52:10;;;;;;;8.80;7.78;;;;;;;18.26;89.04;101859.53;5024632;28;20116;-64
2022/09/05 06:54:41;;;;;;;8.65;7.85;;;;;;;18.53;86.60;101857.34;5026292;28;20022;-64
2022/09/05 06:57:23;;;;;;;8.95;7.93;;;;;;;18.79;85.70;101859.44;5041523;28;20420;-64
2022/09/05 07:00:07;;;;;;;8.70;7.65;;;;;;;19.07;80.96;101847.56;5023714;28;20477;-64
2022/09/05 07:02:39;;;;;;;10.20;7.80;;;;;;;19.39;81.63;101847.97;5025752;28;20021;-64
2022/09/05 07:05:23;;;;;;;8.80;7.88;;;;;;;19.78;80.63;101845.72;5025992;28;20476;-65
2022/09/05 07:07:56;;;;;;;7.90;7.20;;;;;;;20.08;79.06;101851.25;5026115;28;20032;-64
2022/09/05 07:10:29;;;;;;;9.52;8.02;;;;;;;20.32;74.96;101858.47;5025673;28;20025;-64
2022/09/05 07:13:06;;;;;;;9.27;7.95;;;;;;;20.51;73.38;101863.84;5026358;28;20025;-64
2022/09/05 07:15:49;;;;;;;6.70;5.90;;;;;;;20.87;75.86;101862.31;5026331;28;20032;-65
2022/09/05 07:18:42;;;;;;;13.15;6.85;;;;;;;21.24;73.14;101866.03;5027085;28;20083;-65
2022/09/05 07:21:20;;;;;;;7.38;6.68;;;;;;;21.53;68.54;101862.59;5028802;28;20048;-65
2022/09/05 07:23:48;;;;;;;9.20;6.35;;;;;;;21.81;67.76;101867.03;5032595;28;20025;-65
2022/09/05 07:26:17;;;;;;;8.45;7.05;;;;;;;22.10;66.15;101868.81;5011852;28;20076;-65
2022/09/05 07:28:48;;;;;;;7.20;6.57;;;;;;;22.52;65.63;101866.13;5011135;28;20036;-65
2022/09/05 07:31:17;;;;;;;11.95;6.68;;;;;;;22.75;64.73;101867.88;5028572;28;20350;-65
2022/09/05 07:33:45;;;;;;;9.32;6.13;;;;;;;23.09;63.52;101865.97;5029492;28;20032;-65
2022/09/05 07:36:18;;;;;;;10.10;5.70;;;;;;;23.31;61.90;101865.88;5029773;28;20029;-65
2022/09/05 07:38:49;;;;;;;7.10;6.30;;;;;;;23.68;62.16;101867.44;5028266;28;20496;-65
2022/09/05 07:41:38;;;;;;;7.32;5.45;;;;;;;24.02;59.29;101858.38;5027822;28;20045;-65
2022/09/05 07:44:14;;;;;;;6.30;4.82;;;;;;;24.23;57.18;101874.09;5027617;28;20026;-65
2022/09/05 07:46:41;;;;;;;5.32;4.38;;;;;;;24.36;56.16;101873.97;5028124;28;20499;-65
2022/09/05 07:49:17;;;;;;;4.97;4.50;;;;;;;24.46;55.11;101883.59;5027848;28;20033;-65
2022/09/05 07:51:52;;;;;;;4.72;3.88;;;;;;;24.52;55.78;101873.84;5027521;28;20029;-65
2022/09/05 07:54:27;;;;;;;6.03;3.53;;;;;;;24.79;54.46;101874.44;5027647;28;20069;-65
2022/09/05 07:57:02;;;;;;;10.68;3.58;;;;;;;25.09;53.98;101880.28;5027924;28;20029;-65
2022/09/05 07:59:32;;;;;;;12.15;3.90;;;;;;;25.50;52.56;101877.06;5027802;28;20033;-65
2022/09/05 08:01:59;;;;;;;8.18;3.95;;;;;;;25.96;51.32;101888.75;5027672;28;20086;-65
2022/09/05 08:04:33;;;;;;;8.00;3.05;;;;;;;26.41;50.02;101887.13;5027029;28;20108;-65
2022/09/05 08:07:05;;;;;;;5.65;3.15;;;;;;;26.70;49.01;101884.81;5027688;28;20029;-65
2022/09/05 08:09:35;;;;;;;4.63;2.95;;;;;;;26.92;48.38;101884.41;5028350;28;20405;-65
2022/09/05 08:12:10;;;;;;;6.10;3.08;;;;;;;27.11;47.57;101878.75;5029203;28;20184;-65
2022/09/05 08:14:35;;;;;;;5.07;2.83;;;;;;;27.33;47.03;101874.69;5029112;28;20025;-65
2022/09/05 08:17:05;;;;;;;6.45;2.67;;;;;;;27.50;46.06;101870.75;5028160;28;20029;-66
2022/09/05 08:20:15;;;;;;;4.28;3.00;;;;;;;27.66;45.82;101875.72;5028893;28;20377;-66
2022/09/05 08:22:58;;;;;;;3.70;2.70;;;;;;;27.96;45.17;101873.22;4999642;28;20056;-66
2022/09/05 08:25:32;;;;;;;5.00;3.00;;;;;;;28.05;44.44;101874.78;5028376;28;20043;-66
2022/09/05 08:28:20;;;;;;;4.13;2.33;;;;;;;28.24;43.70;101879.63;5028870;28;20127;-66
2022/09/05 08:30:56;;;;;;;6.25;3.15;;;;;;;28.38;43.34;101879.28;5027859;28;20060;-66
2022/09/05 08:33:26;;;;;;;5.68;2.58;;;;;;;28.33;43.61;101870.53;5029094;28;20028;-66
2022/09/05 08:35:58;;;;;;;5.60;2.70;;;;;;;28.24;41.27;101876.97;5028563;28;20037;-65
2022/09/05 08:38:24;;;;;;;4.53;2.40;;;;;;;28.24;42.47;101877.84;5028893;28;20448;-66
2022/09/05 08:40:55;;;;;;;3.58;2.38;;;;;;;28.43;42.38;101874.72;5028405;28;20132;-66
2022/09/05 08:43:33;;;;;;;3.83;2.30;;;;;;;28.49;41.37;101877.22;5027937;28;20041;-66
2022/09/05 08:46:15;;;;;;;2.95;2.60;;;;;;;28.55;41.28;101881.47;5028651;28;20025;-66
2022/09/05 08:49:06;;;;;;;4.35;2.35;;;;;;;28.63;42.06;101879.50;5028174;28;20060;-66
2022/09/05 08:51:40;;;;;;;3.50;2.08;;;;;;;28.58;40.74;101875.19;5028197;28;20037;-66
2022/09/05 08:54:21;;;;;;;4.57;2.33;;;;;;;28.21;41.38;101875.25;5028229;28;20021;-65
2022/09/05 08:56:46;;;;;;;5.75;2.28;;;;;;;28.39;41.03;101870.38;5028165;28;20030;-65
2022/09/05 08:59:36;;;;;;;3.40;2.00;;;;;;;28.61;39.86;101872.44;5027742;28;20026;-65
2022/09/05 09:02:10;;;;;;;2.60;1.77;;;;;;;28.82;39.85;101867.44;5027480;28;20029;-65
2022/09/05 09:04:57;;;;;;;6.63;1.90;;;;;;;28.96;40.23;101859.88;5027959;28;20048;-65
2022/09/05 09:07:30;;;;;;;5.63;1.75;;;;;;;29.05;39.11;101857.88;5027698;28;20492;-65
2022/09/05 09:10:03;;;;;;;3.58;1.80;;;;;;;29.20;39.69;101860.06;5028191;28;20021;-65
2022/09/05 09:12:28;;;;;;;4.03;1.90;;;;;;;29.33;39.42;101855.25;5027494;28;20047;-65
2022/09/05 09:14:59;;;;;;;3.38;2.22;;;;;;;29.38;39.11;101849.75;5027933;28;20104;-66
2022/09/05 09:17:44;;;;;;;2.25;1.50;;;;;;;29.50;38.78;101843.16;5027168;28;20044;-65
2022/09/05 09:20:27;;;;;;;5.72;1.90;;;;;;;29.56;38.23;101852.72;5028264;28;20393;-66
2022/09/05 09:22:55;;;;;;;2.20;1.67;;;;;;;29.34;37.76;101842.78;5027300;28;20479;-65
2022/09/05 09:25:26;;;;;;;2.17;1.60;;;;;;;29.36;37.71;101848.91;5027606;28;20029;-65
2022/09/05 09:28:00;;;;;;;2.60;1.50;;;;;;;29.40;37.06;101842.56;5027293;28;20500;-65
2022/09/05 09:30:29;;;;;;;3.35;1.77;;;;;;;29.51;37.02;101828.88;5027805;28;20029;-65
2022/09/05 09:33:01;;;;;;;3.22;1.42;;;;;;;29.65;36.76;101841.78;5027344;28;20075;-65
2022/09/05 09:35:51;;;;;;;1.92;1.42;;;;;;;29.72;35.77;101838.00;5027138;28;20474;-65
2022/09/05 09:38:19;;;;;;;2.08;1.30;;;;;;;29.75;36.69;101842.38;5026977;28;20055;-66
2022/09/05 09:41:21;;;;;;;2.33;1.50;;;;;;;29.75;36.57;101833.47;5026439;28;20470;-65
2022/09/05 09:43:49;;;;;;;2.30;1.50;;;;;;;29.68;35.84;101835.50;5026983;28;20422;-66
2022/09/05 09:46:45;;;;;;;2.60;1.40;;;;;;;29.66;35.82;101838.22;5027321;28;20029;-66
2022/09/05 09:49:20;;;;;;;2.95;1.40;;;;;;;29.70;36.23;101829.16;5027493;28;20027;-66
2022/09/05 09:52:04;;;;;;;2.97;1.42;;;;;;;29.83;36.18;101831.41;5026689;28;20029;-66
2022/09/05 09:55:00;;;;;;;5.15;1.42;;;;;;;29.98;35.12;101831.81;5016286;28;20448;-66
2022/09/05 09:58:03;;;;;;;2.85;1.30;;;;;;;30.00;35.05;101836.19;5027056;28;20418;-66
2022/09/05 10:00:54;;;;;;;1.63;1.20;;;;;;;30.10;34.59;101831.38;5027072;28;20429;-65
2022/09/05 10:03:34;;;;;;;3.40;1.30;;;;;;;30.15;33.15;101833.91;5026929;28;20529;-65
2022/09/05 10:06:53;;;;;;;2.33;0.95;;;;;;;30.19;33.33;101831.03;5027180;28;20466;-66
2022/09/05 10:09:46;;;;;;;2.47;1.25;;;;;;;30.20;32.96;101831.94;4965447;28;20427;-66
2022/09/05 10:12:40;;;;;;;3.28;1.10;;;;;;;30.23;32.28;101822.94;5027270;28;20037;-66
2022/09/05 10:15:27;;;;;;;4.60;1.20;;;;;;;30.31;32.98;101818.22;5026758;28;20022;-66
2022/09/05 10:18:22;;;;;;;2.45;1.10;;;;;;;30.28;32.48;101818.31;5027675;28;20485;-66
2022/09/05 10:21:18;;;;;;;2.08;0.90;;;;;;;30.34;32.02;101802.06;5027064;28;20377;-66
2022/09/05 10:24:00;;;;;;;5.10;1.42;;;;;;;30.42;32.68;101799.97;5026915;28;20033;-66
2022/09/05 10:27:03;;;;;;;3.55;1.30;;;;;;;30.56;32.55;101795.91;5026492;28;20048;-66
2022/09/05 10:30:00;;;;;;;1.33;0.90;;;;;;;30.66;31.32;101797.28;5026911;28;20030;-66
2022/09/05 10:33:00;;;;;;;4.28;1.27;;;;;;;30.68;31.92;101798.13;5026010;28;20033;-66
2022/09/05 10:35:40;;;;;;;2.17;1.20;;;;;;;30.66;30.92;101797.28;5026845;28;20036;-66
2022/09/05 10:38:05;;;;;;;;;;;;;;;30.63;31.31;101797.41;5027133;28;20083;-66
2022/09/05 10:40:34;;;;;;;1.30;1.17;;;;;;;30.61;31.11;101793.94;5026642;28;19956;-66
2022/09/05 10:43:11;;;;;;;3.03;1.10;;;;;;;30.64;31.52;101792.91;5026459;28;20030;-66
2022/09/05 10:45:48;;;;;;;1.13;0.90;;;;;;;30.74;31.87;101789.00;5026318;28;20021;-66
2022/09/05 10:48:25;;;;;;;2.75;0.80;;;;;;;30.83;30.94;101785.09;5026137;28;20119;-66
2022/09/05 10:50:59;;;;;;;1.30;1.20;;;;;;;31.00;31.44;101786.22;5026409;28;20284;-66
2022/09/05 10:53:44;;;;;;;2.15;1.38;;;;;;;31.08;31.24;101789.47;5029151;28;20025;-66
2022/09/05 10:56:24;;;;;;;1.73;1.05;;;;;;;30.88;30.10;101787.59;5030685;28;20465;-66
2022/09/05 10:58:49;;;;;;;2.15;0.85;;;;;;;31.01;29.64;101780.84;5030448;28;20464;-66
2022/09/05 11:01:55;;;;;;;1.08;0.90;;;;;;;31.01;30.06;101779.94;5029843;28;20104;-66
2022/09/05 11:04:51;;;;;;;1.63;0.80;;;;;;;31.15;30.51;101777.59;4999934;28;20043;-66
2022/09/05 11:07:23;;;;;;;3.20;0.70;;;;;;;31.29;30.35;101781.50;5029358;28;20451;-66
2022/09/05 11:09:51;;;;;;;1.95;0.90;;;;;;;31.37;29.96;101774.00;5029767;28;20071;-66
2022/09/05 11:12:39;;;;;;;1.52;0.93;;;;;;;31.46;29.99;101769.25;5030772;28;20083;-67
2022/09/05 11:15:20;;;;;;;0.93;0.80;;;;;;;31.39;29.64;101772.13;5030026;28;20127;-66
2022/09/05 11:18:06;;;;;;;1.52;0.90;;;;;;;31.33;29.68;101769.72;5029584;28;20462;-66
2022/09/05 11:20:31;;;;;;;2.65;1.15;;;;;;;31.43;29.42;101774.75;5029441;28;20069;-66
2022/09/05 11:23:03;;;;;;;0.80;0.80;;;;;;;31.44;29.18;101761.28;5030022;28;20049;-67
2022/09/05 11:25:30;;;;;;;3.33;1.08;;;;;;;31.59;30.36;101765.09;5029690;28;20029;-66
2022/09/05 11:28:04;;;;;;;3.60;1.08;;;;;;;31.66;29.47;101755.00;5029209;28;20055;-66
2022/09/05 11:30:39;;;;;;;2.63;1.00;;;;;;;31.54;29.21;101756.38;5029799;28;20033;-66
2022/09/05 11:33:32;;;;;;;1.77;1.20;;;;;;;31.50;29.31;101754.81;5029500;28;20021;-66
2022/09/05 11:36:15;;;;;;;2.22;1.05;;;;;;;31.57;30.03;101744.69;5029351;28;20036;-66
2022/09/05 11:38:51;;;;;;;1.55;0.80;;;;;;;31.54;29.43;101745.69;5017360;28;20029;-66
2022/09/05 11:41:27;;;;;;;1.38;1.10;;;;;;;31.57;29.00;101744.69;5028877;28;20046;-66
2022/09/05 11:44:26;;;;;;;4.38;1.00;;;;;;;31.69;29.39;101749.50;5029089;28;20036;-66
2022/09/05 11:47:02;;;;;;;1.20;0.85;;;;;;;31.84;29.87;101739.06;5029558;28;20036;-66
2022/09/05 11:50:13;;;;;;;3.90;1.27;;;;;;;31.67;29.15;101751.38;5029413;28;20029;-66
2022/09/05 11:52:54;;;;;;;1.33;0.80;;;;;;;31.79;29.11;101755.31;5013606;28;20041;-66
2022/09/05 11:55:23;;;;;;;;;;;;;;;31.91;28.22;101755.72;5029623;28;20370;-66
2022/09/05 11:58:39;;;;;;;2.03;0.77;;;;;;;31.97;28.83;101750.94;5029286;28;19913;-66
2022/09/05 12:01:16;;;;;;;1.65;1.13;;;;;;;31.94;28.61;101742.19;5028738;28;20033;-66
2022/09/05 12:03:58;;;;;;;1.27;0.90;;;;;;;32.05;28.52;101745.28;5029020;28;20052;-66
2022/09/05 12:07:02;;;;;;;1.77;0.93;;;;;;;32.05;28.40;101739.94;5029403;28;20112;-66
2022/09/05 12:10:01;;;;;;;2.20;1.27;;;;;;;32.16;28.20;101743.91;5008962;28;20138;-66
2022/09/05 12:12:41;;;;;;;1.13;0.85;;;;;;;32.20;28.24;101745.53;5028947;28;20053;-66
2022/09/05 12:15:22;;;;;;;1.25;1.10;;;;;;;32.30;28.62;101746.84;5028761;28;20017;-66
2022/09/05 12:18:02;;;;;;;1.52;1.02;;;;;;;32.38;27.77;101734.88;5028772;28;20029;-66
2022/09/05 12:20:57;;;;;;;0.83;0.70;;;;;;;32.34;27.67;101734.16;5011194;28;20036;-66
2022/09/05 12:23:32;;;;;;;3.42;1.30;;;;;;;32.38;27.92;101727.72;5028188;28;20049;-66
2022/09/05 12:26:12;;;;;;;2.85;1.02;;;;;;;32.32;28.15;101731.56;5028468;28;20076;-66
2022/09/05 12:29:17;;;;;;;;;;;;;;;32.05;27.64;101726.53;5029281;28;20047;-66